sensor_id;sensor_type;location;lat;lon;timestamp;temperature;humidity
8939;DHT22;4504;48.810;9.172;2023-06-26T00:02:18;22.30;63.60
8939;DHT22;4504;48.810;9.172;2023-06-26T00:04:45;22.30;64.10
8939;DHT22;4504;48.810;9.172;2023-06-26T00:07:12;22.20;64.30
8939;DHT22;4504;48.810;9.172;2023-06-26T00:09:39;22.20;65.00
8939;DHT22;4504;48.810;9.172;2023-06-26T00:12:07;22.10;65.20
8939;DHT22;4504;48.810;9.172;2023-06-26T00:14:33;22.10;65.40
8939;DHT22;4504;48.810;9.172;2023-06-26T00:17:02;22.00;66.30
8939;DHT22;4504;48.810;9.172;2023-06-26T00:19:29;22.00;66.90
8939;DHT22;4504;48.810;9.172;2023-06-26T00:21:56;21.90;66.90
8939;DHT22;4504;48.810;9.172;2023-06-26T00:24:23;21.90;67.20
8939;DHT22;4504;48.810;9.172;2023-06-26T00:26:50;21.80;67.70
8939;DHT22;4504;48.810;9.172;2023-06-26T00:29:18;21.80;68.60
8939;DHT22;4504;48.810;9.172;2023-06-26T00:31:44;21.80;68.90
8939;DHT22;4504;48.810;9.172;2023-06-26T00:34:13;21.80;69.00
8939;DHT22;4504;48.810;9.172;2023-06-26T00:36:40;21.70;69.40
8939;DHT22;4504;48.810;9.172;2023-06-26T00:39:09;21.70;69.90
8939;DHT22;4504;48.810;9.172;2023-06-26T00:41:36;21.70;70.30
8939;DHT22;4504;48.810;9.172;2023-06-26T00:44:03;21.70;70.40
8939;DHT22;4504;48.810;9.172;2023-06-26T00:46:31;21.60;70.60
8939;DHT22;4504;48.810;9.172;2023-06-26T00:48:59;21.60;71.20
8939;DHT22;4504;48.810;9.172;2023-06-26T00:51:28;21.50;71.30
8939;DHT22;4504;48.810;9.172;2023-06-26T00:53:56;21.50;71.70
8939;DHT22;4504;48.810;9.172;2023-06-26T00:56:23;21.40;72.00
8939;DHT22;4504;48.810;9.172;2023-06-26T00:58:50;21.40;72.40
8939;DHT22;4504;48.810;9.172;2023-06-26T01:01:17;21.40;72.60
8939;DHT22;4504;48.810;9.172;2023-06-26T01:03:51;21.30;72.70
8939;DHT22;4504;48.810;9.172;2023-06-26T01:06:21;21.30;73.10
8939;DHT22;4504;48.810;9.172;2023-06-26T01:08:50;21.30;73.50
8939;DHT22;4504;48.810;9.172;2023-06-26T01:11:18;21.30;73.90
8939;DHT22;4504;48.810;9.172;2023-06-26T01:13:45;21.20;74.20
8939;DHT22;4504;48.810;9.172;2023-06-26T01:16:13;21.20;74.40
8939;DHT22;4504;48.810;9.172;2023-06-26T01:18:41;21.10;75.00
8939;DHT22;4504;48.810;9.172;2023-06-26T01:21:11;21.10;75.10
8939;DHT22;4504;48.810;9.172;2023-06-26T01:23:47;21.00;75.40
8939;DHT22;4504;48.810;9.172;2023-06-26T01:26:20;21.00;75.90
8939;DHT22;4504;48.810;9.172;2023-06-26T01:28:49;20.90;76.50
8939;DHT22;4504;48.810;9.172;2023-06-26T01:31:17;20.90;76.70
8939;DHT22;4504;48.810;9.172;2023-06-26T01:33:46;20.90;76.70
8939;DHT22;4504;48.810;9.172;2023-06-26T01:36:13;20.80;77.40
8939;DHT22;4504;48.810;9.172;2023-06-26T01:38:40;20.80;77.70
8939;DHT22;4504;48.810;9.172;2023-06-26T01:41:07;20.70;77.80
8939;DHT22;4504;48.810;9.172;2023-06-26T01:43:43;20.70;78.00
8939;DHT22;4504;48.810;9.172;2023-06-26T01:46:21;20.70;79.20
8939;DHT22;4504;48.810;9.172;2023-06-26T01:48:54;20.70;78.70
8939;DHT22;4504;48.810;9.172;2023-06-26T01:51:25;20.70;79.00
8939;DHT22;4504;48.810;9.172;2023-06-26T01:53:55;20.70;79.10
8939;DHT22;4504;48.810;9.172;2023-06-26T01:56:25;20.60;79.30
8939;DHT22;4504;48.810;9.172;2023-06-26T01:58:54;20.60;79.70
8939;DHT22;4504;48.810;9.172;2023-06-26T02:01:22;20.60;79.80
8939;DHT22;4504;48.810;9.172;2023-06-26T02:03:50;20.50;80.20
8939;DHT22;4504;48.810;9.172;2023-06-26T02:06:17;20.50;80.60
8939;DHT22;4504;48.810;9.172;2023-06-26T02:08:44;20.50;81.30
8939;DHT22;4504;48.810;9.172;2023-06-26T02:11:11;20.50;81.70
8939;DHT22;4504;48.810;9.172;2023-06-26T02:13:39;20.40;82.40
8939;DHT22;4504;48.810;9.172;2023-06-26T02:16:08;20.40;83.10
8939;DHT22;4504;48.810;9.172;2023-06-26T02:18:34;20.30;83.30
8939;DHT22;4504;48.810;9.172;2023-06-26T02:21:03;20.20;83.80
8939;DHT22;4504;48.810;9.172;2023-06-26T02:23:31;20.20;84.60
8939;DHT22;4504;48.810;9.172;2023-06-26T02:25:58;20.10;84.70
8939;DHT22;4504;48.810;9.172;2023-06-26T02:28:25;20.10;85.20
8939;DHT22;4504;48.810;9.172;2023-06-26T02:30:52;20.10;85.00
8939;DHT22;4504;48.810;9.172;2023-06-26T02:33:20;20.20;84.80
8939;DHT22;4504;48.810;9.172;2023-06-26T02:35:48;20.10;85.10
8939;DHT22;4504;48.810;9.172;2023-06-26T02:38:16;20.20;85.60
8939;DHT22;4504;48.810;9.172;2023-06-26T02:40:45;20.20;86.00
8939;DHT22;4504;48.810;9.172;2023-06-26T02:43:15;20.10;86.10
8939;DHT22;4504;48.810;9.172;2023-06-26T02:45:42;20.10;85.90
8939;DHT22;4504;48.810;9.172;2023-06-26T02:48:09;20.20;86.30
8939;DHT22;4504;48.810;9.172;2023-06-26T02:50:37;20.10;86.40
8939;DHT22;4504;48.810;9.172;2023-06-26T02:53:07;20.20;86.70
8939;DHT22;4504;48.810;9.172;2023-06-26T02:55:35;20.20;86.90
8939;DHT22;4504;48.810;9.172;2023-06-26T02:58:02;20.20;87.00
8939;DHT22;4504;48.810;9.172;2023-06-26T03:00:30;20.10;87.20
8939;DHT22;4504;48.810;9.172;2023-06-26T03:03:00;20.10;87.50
8939;DHT22;4504;48.810;9.172;2023-06-26T03:05:27;20.00;87.70
8939;DHT22;4504;48.810;9.172;2023-06-26T03:07:56;20.00;88.10
8939;DHT22;4504;48.810;9.172;2023-06-26T03:10:23;20.00;88.50
8939;DHT22;4504;48.810;9.172;2023-06-26T03:12:49;19.90;88.70
8939;DHT22;4504;48.810;9.172;2023-06-26T03:15:17;20.00;89.10
8939;DHT22;4504;48.810;9.172;2023-06-26T03:17:45;20.00;90.00
8939;DHT22;4504;48.810;9.172;2023-06-26T03:20:20;20.00;89.50
8939;DHT22;4504;48.810;9.172;2023-06-26T03:22:51;19.90;89.80
8939;DHT22;4504;48.810;9.172;2023-06-26T03:25:20;19.90;90.10
8939;DHT22;4504;48.810;9.172;2023-06-26T03:27:48;19.80;90.20
8939;DHT22;4504;48.810;9.172;2023-06-26T03:30:17;19.70;90.60
8939;DHT22;4504;48.810;9.172;2023-06-26T03:32:46;19.60;90.80
8939;DHT22;4504;48.810;9.172;2023-06-26T03:35:13;19.60;91.10
8939;DHT22;4504;48.810;9.172;2023-06-26T03:37:40;19.50;91.10
8939;DHT22;4504;48.810;9.172;2023-06-26T03:40:09;19.60;91.40
8939;DHT22;4504;48.810;9.172;2023-06-26T03:42:38;19.50;91.60
8939;DHT22;4504;48.810;9.172;2023-06-26T03:45:06;19.50;91.70
8939;DHT22;4504;48.810;9.172;2023-06-26T03:47:34;19.40;91.80
8939;DHT22;4504;48.810;9.172;2023-06-26T03:50:02;19.50;91.90
8939;DHT22;4504;48.810;9.172;2023-06-26T03:52:29;19.50;92.00
8939;DHT22;4504;48.810;9.172;2023-06-26T03:54:57;19.50;91.90
8939;DHT22;4504;48.810;9.172;2023-06-26T03:57:24;19.60;91.90
8939;DHT22;4504;48.810;9.172;2023-06-26T03:59:53;19.70;92.10
8939;DHT22;4504;48.810;9.172;2023-06-26T04:02:21;19.70;92.10
8939;DHT22;4504;48.810;9.172;2023-06-26T04:04:48;19.70;92.10
8939;DHT22;4504;48.810;9.172;2023-06-26T04:07:15;19.70;92.30
8939;DHT22;4504;48.810;9.172;2023-06-26T04:09:42;19.70;92.50
8939;DHT22;4504;48.810;9.172;2023-06-26T04:12:09;19.80;92.50
8939;DHT22;4504;48.810;9.172;2023-06-26T04:14:36;19.80;92.40
8939;DHT22;4504;48.810;9.172;2023-06-26T04:17:05;19.90;92.70
8939;DHT22;4504;48.810;9.172;2023-06-26T04:19:32;19.90;92.80
8939;DHT22;4504;48.810;9.172;2023-06-26T04:21:59;20.00;93.10
8939;DHT22;4504;48.810;9.172;2023-06-26T04:24:26;20.00;93.30
8939;DHT22;4504;48.810;9.172;2023-06-26T04:26:53;20.00;93.20
8939;DHT22;4504;48.810;9.172;2023-06-26T04:29:22;20.00;93.20
8939;DHT22;4504;48.810;9.172;2023-06-26T04:31:51;20.00;93.40
8939;DHT22;4504;48.810;9.172;2023-06-26T04:34:19;20.10;93.30
8939;DHT22;4504;48.810;9.172;2023-06-26T04:36:46;20.10;93.40
8939;DHT22;4504;48.810;9.172;2023-06-26T04:39:13;20.10;93.30
8939;DHT22;4504;48.810;9.172;2023-06-26T04:41:41;20.10;93.50
8939;DHT22;4504;48.810;9.172;2023-06-26T04:44:08;20.10;93.40
8939;DHT22;4504;48.810;9.172;2023-06-26T04:46:36;20.10;93.50
8939;DHT22;4504;48.810;9.172;2023-06-26T04:49:03;20.10;93.70
8939;DHT22;4504;48.810;9.172;2023-06-26T04:51:31;20.20;93.70
8939;DHT22;4504;48.810;9.172;2023-06-26T04:53:58;20.20;93.90
8939;DHT22;4504;48.810;9.172;2023-06-26T04:56:25;20.20;94.00
8939;DHT22;4504;48.810;9.172;2023-06-26T04:58:52;20.30;94.10
8939;DHT22;4504;48.810;9.172;2023-06-26T05:01:19;20.30;94.10
8939;DHT22;4504;48.810;9.172;2023-06-26T05:03:46;20.30;94.10
8939;DHT22;4504;48.810;9.172;2023-06-26T05:06:13;20.40;94.20
8939;DHT22;4504;48.810;9.172;2023-06-26T05:08:41;20.50;94.20
8939;DHT22;4504;48.810;9.172;2023-06-26T05:11:08;20.40;94.40
8939;DHT22;4504;48.810;9.172;2023-06-26T05:13:35;20.40;94.10
8939;DHT22;4504;48.810;9.172;2023-06-26T05:16:03;20.50;94.20
8939;DHT22;4504;48.810;9.172;2023-06-26T05:18:30;20.50;94.10
8939;DHT22;4504;48.810;9.172;2023-06-26T05:20:57;20.60;94.10
8939;DHT22;4504;48.810;9.172;2023-06-26T05:23:25;20.60;94.00
8939;DHT22;4504;48.810;9.172;2023-06-26T05:25:54;20.70;94.10
8939;DHT22;4504;48.810;9.172;2023-06-26T05:28:22;20.80;93.70
8939;DHT22;4504;48.810;9.172;2023-06-26T05:30:50;20.90;93.60
8939;DHT22;4504;48.810;9.172;2023-06-26T05:33:18;20.90;93.70
8939;DHT22;4504;48.810;9.172;2023-06-26T05:35:46;20.90;93.80
8939;DHT22;4504;48.810;9.172;2023-06-26T05:38:13;21.00;93.50
8939;DHT22;4504;48.810;9.172;2023-06-26T05:40:41;21.00;93.60
8939;DHT22;4504;48.810;9.172;2023-06-26T05:43:10;21.10;93.50
8939;DHT22;4504;48.810;9.172;2023-06-26T05:45:37;21.20;93.40
8939;DHT22;4504;48.810;9.172;2023-06-26T05:48:04;21.20;93.10
8939;DHT22;4504;48.810;9.172;2023-06-26T05:50:32;21.30;93.00
8939;DHT22;4504;48.810;9.172;2023-06-26T05:53:00;21.30;93.10
8939;DHT22;4504;48.810;9.172;2023-06-26T05:55:29;21.40;93.10
8939;DHT22;4504;48.810;9.172;2023-06-26T05:57:57;21.50;92.90
8939;DHT22;4504;48.810;9.172;2023-06-26T06:00:28;21.50;92.90
8939;DHT22;4504;48.810;9.172;2023-06-26T06:02:55;21.60;92.70
8939;DHT22;4504;48.810;9.172;2023-06-26T06:05:22;21.70;92.60
8939;DHT22;4504;48.810;9.172;2023-06-26T06:07:49;21.80;92.50
8939;DHT22;4504;48.810;9.172;2023-06-26T06:10:17;21.80;92.50
8939;DHT22;4504;48.810;9.172;2023-06-26T06:12:44;21.80;92.00
8939;DHT22;4504;48.810;9.172;2023-06-26T06:15:11;21.90;93.00
8939;DHT22;4504;48.810;9.172;2023-06-26T06:17:39;21.90;92.00
8939;DHT22;4504;48.810;9.172;2023-06-26T06:20:06;22.00;91.80
8939;DHT22;4504;48.810;9.172;2023-06-26T06:22:33;22.00;92.00
8939;DHT22;4504;48.810;9.172;2023-06-26T06:25:00;22.00;92.00
8939;DHT22;4504;48.810;9.172;2023-06-26T06:27:27;22.10;91.90
8939;DHT22;4504;48.810;9.172;2023-06-26T06:29:54;22.10;91.90
8939;DHT22;4504;48.810;9.172;2023-06-26T06:32:21;22.30;92.20
8939;DHT22;4504;48.810;9.172;2023-06-26T06:34:49;22.40;91.70
8939;DHT22;4504;48.810;9.172;2023-06-26T06:37:16;22.60;91.20
8939;DHT22;4504;48.810;9.172;2023-06-26T06:39:43;22.60;90.60
8939;DHT22;4504;48.810;9.172;2023-06-26T06:42:10;22.70;90.70
8939;DHT22;4504;48.810;9.172;2023-06-26T06:44:37;22.80;90.90
8939;DHT22;4504;48.810;9.172;2023-06-26T06:47:04;22.80;90.60
8939;DHT22;4504;48.810;9.172;2023-06-26T06:49:31;22.90;90.50
8939;DHT22;4504;48.810;9.172;2023-06-26T06:51:59;22.90;90.90
8939;DHT22;4504;48.810;9.172;2023-06-26T06:54:26;23.00;90.40
8939;DHT22;4504;48.810;9.172;2023-06-26T06:56:54;23.00;90.00
8939;DHT22;4504;48.810;9.172;2023-06-26T06:59:21;23.20;90.40
8939;DHT22;4504;48.810;9.172;2023-06-26T07:01:48;23.20;89.60
8939;DHT22;4504;48.810;9.172;2023-06-26T07:04:15;23.30;88.60
8939;DHT22;4504;48.810;9.172;2023-06-26T07:06:41;23.40;88.00
8939;DHT22;4504;48.810;9.172;2023-06-26T07:09:11;23.50;87.20
8939;DHT22;4504;48.810;9.172;2023-06-26T07:11:38;23.60;87.10
8939;DHT22;4504;48.810;9.172;2023-06-26T07:14:05;23.60;86.20
8939;DHT22;4504;48.810;9.172;2023-06-26T07:16:32;23.60;85.60
8939;DHT22;4504;48.810;9.172;2023-06-26T07:18:59;23.70;85.80
8939;DHT22;4504;48.810;9.172;2023-06-26T07:21:26;23.70;86.40
8939;DHT22;4504;48.810;9.172;2023-06-26T07:23:52;23.80;85.80
8939;DHT22;4504;48.810;9.172;2023-06-26T07:26:21;23.90;85.40
8939;DHT22;4504;48.810;9.172;2023-06-26T07:28:48;24.00;84.20
8939;DHT22;4504;48.810;9.172;2023-06-26T07:31:15;24.20;84.60
8939;DHT22;4504;48.810;9.172;2023-06-26T07:33:43;24.30;84.00
8939;DHT22;4504;48.810;9.172;2023-06-26T07:36:10;24.40;83.40
8939;DHT22;4504;48.810;9.172;2023-06-26T07:38:37;24.60;82.40
8939;DHT22;4504;48.810;9.172;2023-06-26T07:41:04;24.80;80.20
8939;DHT22;4504;48.810;9.172;2023-06-26T07:43:32;24.90;79.40
8939;DHT22;4504;48.810;9.172;2023-06-26T07:45:59;24.80;79.30
8939;DHT22;4504;48.810;9.172;2023-06-26T07:48:26;24.90;78.70
8939;DHT22;4504;48.810;9.172;2023-06-26T07:50:53;25.00;79.20
8939;DHT22;4504;48.810;9.172;2023-06-26T07:53:20;25.10;78.30
8939;DHT22;4504;48.810;9.172;2023-06-26T07:55:47;25.30;77.70
8939;DHT22;4504;48.810;9.172;2023-06-26T07:58:14;25.40;76.50
8939;DHT22;4504;48.810;9.172;2023-06-26T08:00:42;25.40;75.50
8939;DHT22;4504;48.810;9.172;2023-06-26T08:03:09;25.40;75.80
8939;DHT22;4504;48.810;9.172;2023-06-26T08:05:36;25.40;75.10
8939;DHT22;4504;48.810;9.172;2023-06-26T08:08:03;25.40;75.70
8939;DHT22;4504;48.810;9.172;2023-06-26T08:10:30;25.50;74.40
8939;DHT22;4504;48.810;9.172;2023-06-26T08:12:57;25.50;75.60
8939;DHT22;4504;48.810;9.172;2023-06-26T08:15:24;25.60;75.50
8939;DHT22;4504;48.810;9.172;2023-06-26T08:17:52;25.70;74.80
8939;DHT22;4504;48.810;9.172;2023-06-26T08:20:19;25.80;72.10
8939;DHT22;4504;48.810;9.172;2023-06-26T08:22:48;26.00;73.00
8939;DHT22;4504;48.810;9.172;2023-06-26T08:25:17;26.10;73.20
8939;DHT22;4504;48.810;9.172;2023-06-26T08:27:44;26.20;71.00
8939;DHT22;4504;48.810;9.172;2023-06-26T08:30:11;26.20;70.80
8939;DHT22;4504;48.810;9.172;2023-06-26T08:32:39;26.30;71.40
8939;DHT22;4504;48.810;9.172;2023-06-26T08:35:07;26.50;70.40
8939;DHT22;4504;48.810;9.172;2023-06-26T08:37:35;26.80;68.70
8939;DHT22;4504;48.810;9.172;2023-06-26T08:40:03;26.80;68.20
8939;DHT22;4504;48.810;9.172;2023-06-26T08:42:30;26.80;68.40
8939;DHT22;4504;48.810;9.172;2023-06-26T08:44:57;26.90;67.80
8939;DHT22;4504;48.810;9.172;2023-06-26T08:47:25;27.00;66.80
8939;DHT22;4504;48.810;9.172;2023-06-26T08:50:00;27.10;65.80
8939;DHT22;4504;48.810;9.172;2023-06-26T08:52:36;27.20;66.80
8939;DHT22;4504;48.810;9.172;2023-06-26T08:55:08;27.30;66.50
8939;DHT22;4504;48.810;9.172;2023-06-26T08:57:36;27.30;66.00
8939;DHT22;4504;48.810;9.172;2023-06-26T09:00:04;27.30;65.60
8939;DHT22;4504;48.810;9.172;2023-06-26T09:02:35;27.40;65.20
8939;DHT22;4504;48.810;9.172;2023-06-26T09:05:02;27.40;65.30
8939;DHT22;4504;48.810;9.172;2023-06-26T09:07:31;27.50;65.80
8939;DHT22;4504;48.810;9.172;2023-06-26T09:09:58;27.70;65.30
8939;DHT22;4504;48.810;9.172;2023-06-26T09:12:27;27.80;63.50
8939;DHT22;4504;48.810;9.172;2023-06-26T09:14:55;27.80;63.10
8939;DHT22;4504;48.810;9.172;2023-06-26T09:17:24;27.70;62.20
8939;DHT22;4504;48.810;9.172;2023-06-26T09:19:52;27.80;63.30
8939;DHT22;4504;48.810;9.172;2023-06-26T09:22:19;27.90;61.90
8939;DHT22;4504;48.810;9.172;2023-06-26T09:24:50;28.00;62.50
8939;DHT22;4504;48.810;9.172;2023-06-26T09:27:17;28.10;61.10
8939;DHT22;4504;48.810;9.172;2023-06-26T09:29:45;28.20;61.20
8939;DHT22;4504;48.810;9.172;2023-06-26T09:32:13;28.30;59.80
8939;DHT22;4504;48.810;9.172;2023-06-26T09:34:41;28.30;59.80
8939;DHT22;4504;48.810;9.172;2023-06-26T09:37:12;28.50;59.60
8939;DHT22;4504;48.810;9.172;2023-06-26T09:39:39;28.50;59.40
8939;DHT22;4504;48.810;9.172;2023-06-26T09:42:07;28.60;59.10
8939;DHT22;4504;48.810;9.172;2023-06-26T09:44:35;28.60;58.90
8939;DHT22;4504;48.810;9.172;2023-06-26T09:47:03;28.70;58.70
8939;DHT22;4504;48.810;9.172;2023-06-26T09:49:31;28.80;58.40
8939;DHT22;4504;48.810;9.172;2023-06-26T09:52:00;28.80;58.30
8939;DHT22;4504;48.810;9.172;2023-06-26T09:54:27;28.90;58.50
8939;DHT22;4504;48.810;9.172;2023-06-26T09:56:56;29.00;58.50
8939;DHT22;4504;48.810;9.172;2023-06-26T09:59:35;28.90;58.30
8939;DHT22;4504;48.810;9.172;2023-06-26T10:02:02;28.70;58.60
8939;DHT22;4504;48.810;9.172;2023-06-26T10:04:29;28.60;58.90
8939;DHT22;4504;48.810;9.172;2023-06-26T10:06:56;28.70;59.20
8939;DHT22;4504;48.810;9.172;2023-06-26T10:09:24;28.70;59.10
8939;DHT22;4504;48.810;9.172;2023-06-26T10:11:56;28.80;59.20
8939;DHT22;4504;48.810;9.172;2023-06-26T10:14:27;28.70;59.80
8939;DHT22;4504;48.810;9.172;2023-06-26T10:16:57;28.70;60.60
8939;DHT22;4504;48.810;9.172;2023-06-26T10:19:27;28.60;60.90
8939;DHT22;4504;48.810;9.172;2023-06-26T10:21:55;28.60;61.60
8939;DHT22;4504;48.810;9.172;2023-06-26T10:24:23;28.90;60.90
8939;DHT22;4504;48.810;9.172;2023-06-26T10:26:52;28.90;60.40
8939;DHT22;4504;48.810;9.172;2023-06-26T10:29:22;28.90;61.30
8939;DHT22;4504;48.810;9.172;2023-06-26T10:31:51;28.90;61.40
8939;DHT22;4504;48.810;9.172;2023-06-26T10:34:20;29.10;62.20
8939;DHT22;4504;48.810;9.172;2023-06-26T10:36:58;29.00;61.40
8939;DHT22;4504;48.810;9.172;2023-06-26T10:39:26;28.70;63.20
8939;DHT22;4504;48.810;9.172;2023-06-26T10:41:54;28.60;63.50
8939;DHT22;4504;48.810;9.172;2023-06-26T10:44:22;28.60;63.30
8939;DHT22;4504;48.810;9.172;2023-06-26T10:46:50;28.50;62.70
8939;DHT22;4504;48.810;9.172;2023-06-26T10:49:20;28.50;62.10
8939;DHT22;4504;48.810;9.172;2023-06-26T10:51:47;28.80;61.60
8939;DHT22;4504;48.810;9.172;2023-06-26T10:54:16;28.90;60.20
8939;DHT22;4504;48.810;9.172;2023-06-26T10:56:44;29.00;60.80
8939;DHT22;4504;48.810;9.172;2023-06-26T10:59:14;29.10;58.60
8939;DHT22;4504;48.810;9.172;2023-06-26T11:01:43;29.20;57.80
8939;DHT22;4504;48.810;9.172;2023-06-26T11:04:10;29.20;57.10
8939;DHT22;4504;48.810;9.172;2023-06-26T11:06:39;29.10;57.40
8939;DHT22;4504;48.810;9.172;2023-06-26T11:09:08;29.20;56.80
8939;DHT22;4504;48.810;9.172;2023-06-26T11:11:56;29.10;57.70
8939;DHT22;4504;48.810;9.172;2023-06-26T11:14:31;29.40;57.60
8939;DHT22;4504;48.810;9.172;2023-06-26T11:16:58;29.90;57.00
8939;DHT22;4504;48.810;9.172;2023-06-26T11:19:27;30.30;55.60
8939;DHT22;4504;48.810;9.172;2023-06-26T11:22:03;29.60;57.10
8939;DHT22;4504;48.810;9.172;2023-06-26T11:24:30;29.30;56.10
8939;DHT22;4504;48.810;9.172;2023-06-26T11:27:02;29.10;57.40
8939;DHT22;4504;48.810;9.172;2023-06-26T11:29:31;29.10;58.40
8939;DHT22;4504;48.810;9.172;2023-06-26T11:32:03;29.70;58.50
8939;DHT22;4504;48.810;9.172;2023-06-26T11:34:32;30.20;58.30
8939;DHT22;4504;48.810;9.172;2023-06-26T11:37:01;30.30;56.10
8939;DHT22;4504;48.810;9.172;2023-06-26T11:39:29;30.00;58.50
8939;DHT22;4504;48.810;9.172;2023-06-26T11:41:57;30.30;58.20
8939;DHT22;4504;48.810;9.172;2023-06-26T11:44:24;30.50;58.20
8939;DHT22;4504;48.810;9.172;2023-06-26T11:46:52;30.70;58.70
8939;DHT22;4504;48.810;9.172;2023-06-26T11:49:21;31.10;57.60
8939;DHT22;4504;48.810;9.172;2023-06-26T11:51:51;31.10;57.70
8939;DHT22;4504;48.810;9.172;2023-06-26T11:54:25;30.50;58.60
8939;DHT22;4504;48.810;9.172;2023-06-26T11:56:54;30.30;58.90
8939;DHT22;4504;48.810;9.172;2023-06-26T11:59:23;30.10;60.60
8939;DHT22;4504;48.810;9.172;2023-06-26T12:01:51;30.50;59.70
8939;DHT22;4504;48.810;9.172;2023-06-26T12:04:20;30.30;59.70
8939;DHT22;4504;48.810;9.172;2023-06-26T12:06:49;29.80;61.70
8939;DHT22;4504;48.810;9.172;2023-06-26T12:09:18;29.60;62.80
8939;DHT22;4504;48.810;9.172;2023-06-26T12:11:48;30.00;62.30
8939;DHT22;4504;48.810;9.172;2023-06-26T12:14:20;30.40;61.50
8939;DHT22;4504;48.810;9.172;2023-06-26T12:16:47;31.20;59.70
8939;DHT22;4504;48.810;9.172;2023-06-26T12:19:14;30.70;58.70
8939;DHT22;4504;48.810;9.172;2023-06-26T12:21:46;30.60;59.50
8939;DHT22;4504;48.810;9.172;2023-06-26T12:24:15;30.70;59.50
8939;DHT22;4504;48.810;9.172;2023-06-26T12:26:44;30.50;60.20
8939;DHT22;4504;48.810;9.172;2023-06-26T12:29:13;30.40;61.30
8939;DHT22;4504;48.810;9.172;2023-06-26T12:31:41;30.60;60.00
8939;DHT22;4504;48.810;9.172;2023-06-26T12:34:09;30.70;59.40
8939;DHT22;4504;48.810;9.172;2023-06-26T12:36:40;30.50;60.50
8939;DHT22;4504;48.810;9.172;2023-06-26T12:39:10;30.70;60.10
8939;DHT22;4504;48.810;9.172;2023-06-26T12:41:47;30.70;59.80
8939;DHT22;4504;48.810;9.172;2023-06-26T12:44:20;31.00;59.50
8939;DHT22;4504;48.810;9.172;2023-06-26T12:46:47;31.30;57.90
8939;DHT22;4504;48.810;9.172;2023-06-26T12:49:15;30.70;59.40
8939;DHT22;4504;48.810;9.172;2023-06-26T12:51:43;31.20;58.90
8939;DHT22;4504;48.810;9.172;2023-06-26T12:54:10;30.40;58.90
8939;DHT22;4504;48.810;9.172;2023-06-26T12:56:37;30.30;60.50
8939;DHT22;4504;48.810;9.172;2023-06-26T12:59:04;30.20;59.60
8939;DHT22;4504;48.810;9.172;2023-06-26T13:01:32;30.30;60.10
8939;DHT22;4504;48.810;9.172;2023-06-26T13:04:01;30.40;59.00
8939;DHT22;4504;48.810;9.172;2023-06-26T13:06:29;30.20;59.80
8939;DHT22;4504;48.810;9.172;2023-06-26T13:08:56;30.70;58.90
8939;DHT22;4504;48.810;9.172;2023-06-26T13:11:23;30.60;58.70
8939;DHT22;4504;48.810;9.172;2023-06-26T13:13:50;30.80;58.70
8939;DHT22;4504;48.810;9.172;2023-06-26T13:16:16;30.80;58.40
8939;DHT22;4504;48.810;9.172;2023-06-26T13:18:46;30.70;57.80
8939;DHT22;4504;48.810;9.172;2023-06-26T13:21:13;30.70;57.90
8939;DHT22;4504;48.810;9.172;2023-06-26T13:23:41;31.20;57.70
8939;DHT22;4504;48.810;9.172;2023-06-26T13:26:08;31.60;55.90
8939;DHT22;4504;48.810;9.172;2023-06-26T13:28:35;31.70;55.40
8939;DHT22;4504;48.810;9.172;2023-06-26T13:31:02;31.50;55.10
8939;DHT22;4504;48.810;9.172;2023-06-26T13:33:30;31.30;55.10
8939;DHT22;4504;48.810;9.172;2023-06-26T13:35:58;31.40;55.20
8939;DHT22;4504;48.810;9.172;2023-06-26T13:38:25;32.10;53.60
8939;DHT22;4504;48.810;9.172;2023-06-26T13:40:52;31.70;54.00
8939;DHT22;4504;48.810;9.172;2023-06-26T13:43:21;31.30;54.10
8939;DHT22;4504;48.810;9.172;2023-06-26T13:45:48;31.60;53.30
8939;DHT22;4504;48.810;9.172;2023-06-26T13:48:15;31.80;53.10
8939;DHT22;4504;48.810;9.172;2023-06-26T13:50:43;31.90;52.10
8939;DHT22;4504;48.810;9.172;2023-06-26T13:53:11;31.60;50.40
8939;DHT22;4504;48.810;9.172;2023-06-26T13:55:39;31.20;50.20
8939;DHT22;4504;48.810;9.172;2023-06-26T13:58:07;30.20;50.10
8939;DHT22;4504;48.810;9.172;2023-06-26T14:00:34;30.10;50.80
8939;DHT22;4504;48.810;9.172;2023-06-26T14:03:02;30.40;51.30
8939;DHT22;4504;48.810;9.172;2023-06-26T14:05:30;30.70;50.60
8939;DHT22;4504;48.810;9.172;2023-06-26T14:07:57;31.30;49.50
8939;DHT22;4504;48.810;9.172;2023-06-26T14:10:25;30.70;49.50
8939;DHT22;4504;48.810;9.172;2023-06-26T14:12:52;30.20;50.40
8939;DHT22;4504;48.810;9.172;2023-06-26T14:15:19;30.20;50.40
8939;DHT22;4504;48.810;9.172;2023-06-26T14:17:46;30.00;51.50
8939;DHT22;4504;48.810;9.172;2023-06-26T14:20:16;30.30;51.40
8939;DHT22;4504;48.810;9.172;2023-06-26T14:22:43;30.30;51.60
8939;DHT22;4504;48.810;9.172;2023-06-26T14:25:10;30.50;50.40
8939;DHT22;4504;48.810;9.172;2023-06-26T14:27:39;30.70;50.30
8939;DHT22;4504;48.810;9.172;2023-06-26T14:30:08;30.90;49.90
8939;DHT22;4504;48.810;9.172;2023-06-26T14:32:35;30.60;49.70
8939;DHT22;4504;48.810;9.172;2023-06-26T14:35:02;30.30;50.30
8939;DHT22;4504;48.810;9.172;2023-06-26T14:37:32;30.20;50.70
8939;DHT22;4504;48.810;9.172;2023-06-26T14:39:59;30.50;50.40
8939;DHT22;4504;48.810;9.172;2023-06-26T14:42:26;30.80;49.60
8939;DHT22;4504;48.810;9.172;2023-06-26T14:44:54;31.20;49.90
8939;DHT22;4504;48.810;9.172;2023-06-26T14:47:21;30.80;49.10
8939;DHT22;4504;48.810;9.172;2023-06-26T14:49:48;30.70;50.80
8939;DHT22;4504;48.810;9.172;2023-06-26T14:52:15;30.70;50.20
8939;DHT22;4504;48.810;9.172;2023-06-26T14:54:42;30.50;50.80
8939;DHT22;4504;48.810;9.172;2023-06-26T14:57:09;30.50;51.70
8939;DHT22;4504;48.810;9.172;2023-06-26T14:59:36;30.40;51.60
8939;DHT22;4504;48.810;9.172;2023-06-26T15:02:05;30.70;51.00
8939;DHT22;4504;48.810;9.172;2023-06-26T15:04:32;30.80;50.90
8939;DHT22;4504;48.810;9.172;2023-06-26T15:06:59;30.70;50.80
8939;DHT22;4504;48.810;9.172;2023-06-26T15:09:26;30.50;51.10
8939;DHT22;4504;48.810;9.172;2023-06-26T15:11:53;30.20;51.60
8939;DHT22;4504;48.810;9.172;2023-06-26T15:14:20;29.80;52.20
8939;DHT22;4504;48.810;9.172;2023-06-26T15:16:47;30.00;52.60
8939;DHT22;4504;48.810;9.172;2023-06-26T15:19:15;29.80;52.70
8939;DHT22;4504;48.810;9.172;2023-06-26T15:21:42;30.00;52.20
8939;DHT22;4504;48.810;9.172;2023-06-26T15:24:09;30.00;51.40
8939;DHT22;4504;48.810;9.172;2023-06-26T15:26:36;29.90;52.20
8939;DHT22;4504;48.810;9.172;2023-06-26T15:29:03;30.00;52.40
8939;DHT22;4504;48.810;9.172;2023-06-26T15:31:30;29.70;51.70
8939;DHT22;4504;48.810;9.172;2023-06-26T15:33:57;28.90;53.30
8939;DHT22;4504;48.810;9.172;2023-06-26T15:36:25;28.80;54.10
8939;DHT22;4504;48.810;9.172;2023-06-26T15:38:52;28.60;53.90
8939;DHT22;4504;48.810;9.172;2023-06-26T15:41:19;28.50;53.80
8939;DHT22;4504;48.810;9.172;2023-06-26T15:43:46;28.50;54.30
8939;DHT22;4504;48.810;9.172;2023-06-26T15:46:13;28.60;54.00
8939;DHT22;4504;48.810;9.172;2023-06-26T15:48:41;28.70;53.30
8939;DHT22;4504;48.810;9.172;2023-06-26T15:51:08;28.60;53.80
8939;DHT22;4504;48.810;9.172;2023-06-26T15:53:37;28.50;54.30
8939;DHT22;4504;48.810;9.172;2023-06-26T15:56:06;28.60;54.00
8939;DHT22;4504;48.810;9.172;2023-06-26T15:58:35;28.30;54.10
8939;DHT22;4504;48.810;9.172;2023-06-26T16:01:07;27.90;55.40
8939;DHT22;4504;48.810;9.172;2023-06-26T16:03:34;27.90;55.50
8939;DHT22;4504;48.810;9.172;2023-06-26T16:06:01;27.90;56.00
8939;DHT22;4504;48.810;9.172;2023-06-26T16:08:28;27.80;55.80